Time;durP1;ratioP1;P1;durP2;ratioP2;P2;SDS_P1;SDS_P2;PMS_P1;PMS_P2;Temp;Humidity;BMP_temperature;BMP_pressure;BME280_temperature;BME280_humidity;BME280_pressure;Samples;Min_cycle;Max_cycle;Signal;HPM_P1;HPM_P2
2023/06/25 00:01:03;;;;;;;11.68;10.35;;;;;;;24.06;49.71;100333.84;4975567;28;20417;-82
2023/06/25 00:03:30;;;;;;;11.32;10.23;;;;;;;24.02;49.66;100328.94;4992649;28;20062;-83
2023/06/25 00:05:57;;;;;;;13.95;10.57;;;;;;;23.96;50.16;100330.47;4975165;28;20065;-83
2023/06/25 00:08:23;;;;;;;12.27;10.10;;;;;;;23.90;49.81;100331.94;4992475;28;20137;-83
2023/06/25 00:10:50;;;;;;;13.57;9.82;;;;;;;23.85;49.73;100334.25;4992412;28;20103;-82
2023/06/25 00:13:16;;;;;;;11.13;9.95;;;;;;;23.79;50.15;100332.22;4991397;28;20141;-83
2023/06/25 00:15:43;;;;;;;13.55;10.95;;;;;;;23.74;49.90;100330.00;4975002;28;20062;-83
2023/06/25 00:18:09;;;;;;;12.32;11.02;;;;;;;23.69;50.02;100324.25;4992626;28;20054;-83
2023/06/25 00:20:36;;;;;;;12.70;10.45;;;;;;;23.63;50.74;100324.91;4992401;28;20112;-82
2023/06/25 00:23:03;;;;;;;12.15;10.90;;;;;;;23.58;50.80;100327.25;4992469;28;20062;-82
2023/06/25 00:25:34;;;;;;;12.30;11.10;;;;;;;23.55;50.73;100328.41;4992041;28;20065;-83
2023/06/25 00:28:00;;;;;;;12.95;11.55;;;;;;;23.49;50.68;100329.88;4992767;28;20085;-83
2023/06/25 00:30:27;;;;;;;13.65;11.73;;;;;;;23.45;50.93;100323.13;4992396;28;20060;-81
2023/06/25 00:32:56;;;;;;;13.95;11.50;;;;;;;23.40;50.54;100314.72;4974767;28;20105;-82
2023/06/25 00:35:26;;;;;;;14.48;11.90;;;;;;;23.35;51.23;100325.06;4992358;28;20133;-82
2023/06/25 00:38:00;;;;;;;12.70;11.40;;;;;;;23.32;50.72;100322.69;4992022;28;20486;-82
2023/06/25 00:40:27;;;;;;;12.48;11.18;;;;;;;23.27;51.05;100324.00;4975130;28;20136;-82
2023/06/25 00:42:58;;;;;;;15.30;11.27;;;;;;;23.23;50.82;100322.63;4991711;28;20058;-82
2023/06/25 00:45:25;;;;;;;12.75;10.82;;;;;;;23.19;51.03;100326.63;4992074;28;20058;-82
2023/06/25 00:47:52;;;;;;;13.25;11.30;;;;;;;23.14;51.29;100328.94;4991954;28;20461;-82
2023/06/25 00:50:21;;;;;;;12.13;10.82;;;;;;;23.10;51.41;100323.00;4974749;28;20086;-82
2023/06/25 00:52:49;;;;;;;14.98;12.40;;;;;;;23.04;51.24;100318.28;4974698;28;20057;-83
2023/06/25 00:55:16;;;;;;;14.95;11.73;;;;;;;23.00;51.71;100322.28;4991578;28;20088;-83
2023/06/25 00:57:43;;;;;;;14.20;11.85;;;;;;;22.96;51.26;100316.38;4991503;28;20066;-83
2023/06/25 01:00:14;;;;;;;13.32;11.43;;;;;;;22.91;51.68;100315.97;4991576;28;20056;-82
2023/06/25 01:02:50;;;;;;;14.25;11.02;;;;;;;22.83;52.46;100329.34;4974399;28;20058;-82
2023/06/25 01:05:22;;;;;;;13.73;12.23;;;;;;;22.83;51.72;100315.94;4974546;28;20051;-83
2023/06/25 01:07:52;;;;;;;14.05;12.68;;;;;;;22.77;51.84;100317.38;4991590;28;20097;-83
2023/06/25 01:10:19;;;;;;;16.40;12.65;;;;;;;22.72;52.35;100315.16;4991246;28;20050;-83
2023/06/25 01:12:46;;;;;;;17.38;14.40;;;;;;;22.68;52.13;100313.78;4974350;28;20070;-82
2023/06/25 01:15:12;;;;;;;19.55;14.57;;;;;;;22.64;52.37;100312.38;4991272;28;20050;-82
2023/06/25 01:17:39;;;;;;;16.15;13.70;;;;;;;22.62;52.51;100314.41;4974211;28;20094;-83
2023/06/25 01:20:11;;;;;;;18.23;13.73;;;;;;;22.59;52.76;100310.19;4973994;28;20133;-83
2023/06/25 01:22:42;;;;;;;17.70;13.15;;;;;;;22.57;52.80;100303.28;4970895;28;20475;-83
2023/06/25 01:25:09;;;;;;;14.98;13.43;;;;;;;22.56;52.84;100297.06;4954132;28;20051;-83
2023/06/25 01:27:36;;;;;;;14.10;12.52;;;;;;;22.57;52.80;100300.59;4972066;28;20055;-83
2023/06/25 01:30:05;;;;;;;16.30;13.25;;;;;;;22.56;53.10;100301.56;4971837;28;20149;-83
2023/06/25 01:32:32;;;;;;;17.20;12.63;;;;;;;22.55;53.07;100302.59;4987998;28;20078;-83
2023/06/25 01:34:59;;;;;;;13.63;12.10;;;;;;;22.51;52.83;100292.13;4990695;28;20057;-83
2023/06/25 01:37:30;;;;;;;12.82;11.43;;;;;;;22.48;53.09;100295.13;4990900;28;20068;-83
2023/06/25 01:39:57;;;;;;;17.70;11.77;;;;;;;22.47;52.91;100289.91;4973836;28;20058;-82
2023/06/25 01:42:23;;;;;;;18.48;12.20;;;;;;;22.42;53.14;100286.84;4990511;28;20572;-83
2023/06/25 01:44:51;;;;;;;14.68;12.63;;;;;;;22.39;53.38;100290.69;4990958;28;20466;-82
2023/06/25 01:47:18;;;;;;;18.55;13.10;;;;;;;22.36;53.27;100288.28;4990801;28;20148;-82
2023/06/25 01:49:44;;;;;;;15.93;12.60;;;;;;;22.32;53.47;100279.69;4990526;28;20082;-82
2023/06/25 01:52:11;;;;;;;17.35;12.88;;;;;;;22.30;53.60;100280.84;4990916;28;20062;-83
2023/06/25 01:54:37;;;;;;;15.63;12.48;;;;;;;22.28;53.71;100285.53;4990801;28;20046;-83
2023/06/25 01:57:04;;;;;;;15.13;12.00;;;;;;;22.26;53.87;100283.84;4990753;28;20125;-83
2023/06/25 01:59:35;;;;;;;15.43;13.00;;;;;;;22.25;53.77;100273.25;4991244;28;20082;-82
2023/06/25 02:02:02;;;;;;;14.75;12.98;;;;;;;22.24;54.14;100277.78;4990767;28;20062;-83
2023/06/25 02:04:29;;;;;;;14.63;12.52;;;;;;;22.23;53.91;100268.06;4973608;28;20054;-82
2023/06/25 02:06:55;;;;;;;15.63;13.18;;;;;;;22.24;54.07;100268.91;4990594;28;20457;-83
2023/06/25 02:09:22;;;;;;;16.38;13.32;;;;;;;22.24;54.09;100266.22;4973131;28;20060;-82
2023/06/25 02:11:49;;;;;;;20.90;13.73;;;;;;;22.25;54.19;100270.59;4990820;28;20058;-83
2023/06/25 02:14:15;;;;;;;16.38;13.25;;;;;;;22.26;54.50;100266.91;4990652;28;20153;-83
2023/06/25 02:16:42;;;;;;;16.27;13.63;;;;;;;22.26;54.20;100264.22;4990323;28;20116;-83
2023/06/25 02:19:08;;;;;;;18.33;13.48;;;;;;;22.27;54.33;100265.91;4973065;28;20553;-83
2023/06/25 02:21:35;;;;;;;17.08;13.50;;;;;;;22.25;54.39;100263.34;4990404;28;20073;-83
2023/06/25 02:24:02;;;;;;;16.80;14.43;;;;;;;22.23;54.56;100256.47;4990337;28;20417;-83
2023/06/25 02:26:29;;;;;;;18.35;14.75;;;;;;;22.23;54.69;100254.63;4973162;28;20493;-82
2023/06/25 02:28:55;;;;;;;16.02;13.65;;;;;;;22.23;54.45;100251.97;4973034;28;20054;-82
2023/06/25 02:31:22;;;;;;;16.75;15.05;;;;;;;22.22;54.92;100254.78;4990315;28;20054;-82
2023/06/25 02:33:49;;;;;;;19.73;15.98;;;;;;;22.20;55.05;100252.25;4972980;28;20058;-83
2023/06/25 02:36:15;;;;;;;18.25;15.57;;;;;;;22.21;54.64;100247.75;4992425;28;20057;-82
2023/06/25 02:38:42;;;;;;;19.85;16.67;;;;;;;22.20;55.00;100246.88;4994214;28;20497;-82
2023/06/25 02:41:08;;;;;;;20.85;16.92;;;;;;;22.20;54.93;100249.56;4994452;28;20054;-82
2023/06/25 02:43:35;;;;;;;19.63;17.17;;;;;;;22.19;54.89;100245.22;4994333;28;20093;-82
2023/06/25 02:46:01;;;;;;;19.58;17.52;;;;;;;22.18;55.00;100242.69;4994036;28;20505;-83
2023/06/25 02:48:28;;;;;;;20.27;17.65;;;;;;;22.17;55.16;100239.19;4994031;28;20129;-82
2023/06/25 02:50:55;;;;;;;19.90;17.75;;;;;;;22.16;55.12;100240.16;4993954;28;20081;-82
2023/06/25 02:53:21;;;;;;;24.33;18.85;;;;;;;22.15;55.37;100238.47;4976767;28;20461;-82
2023/06/25 02:55:48;;;;;;;18.65;16.75;;;;;;;22.16;55.18;100234.78;4993709;28;20484;-82
2023/06/25 02:58:14;;;;;;;20.08;17.40;;;;;;;22.14;55.30;100236.78;4993789;28;20093;-82
2023/06/25 03:00:41;;;;;;;19.90;17.88;;;;;;;22.13;55.23;100229.75;4993663;28;20085;-82
2023/06/25 03:03:07;;;;;;;20.17;17.77;;;;;;;22.15;55.30;100230.41;4993337;28;20497;-81
2023/06/25 03:05:34;;;;;;;19.58;17.55;;;;;;;22.14;55.72;100234.09;4993510;28;20054;-82
2023/06/25 03:08:01;;;;;;;19.17;17.17;;;;;;;22.13;55.58;100227.88;4993787;28;20058;-81
2023/06/25 03:10:30;;;;;;;18.17;16.38;;;;;;;22.10;55.70;100230.88;4993683;28;20142;-81
2023/06/25 03:12:57;;;;;;;19.05;17.05;;;;;;;22.11;55.29;100227.22;4993646;28;20292;-82
2023/06/25 03:15:23;;;;;;;18.05;16.25;;;;;;;22.09;55.42;100217.63;4993247;28;20509;-82
2023/06/25 03:17:50;;;;;;;18.85;16.13;;;;;;;22.07;55.53;100220.47;4993712;28;20137;-82
2023/06/25 03:20:17;;;;;;;17.70;15.82;;;;;;;22.05;55.48;100218.94;4976446;28;20097;-82
2023/06/25 03:22:43;;;;;;;16.00;14.23;;;;;;;22.03;55.47;100220.91;4993140;28;20089;-82
2023/06/25 03:25:10;;;;;;;17.42;15.35;;;;;;;22.03;55.49;100223.59;4993146;28;20420;-82
2023/06/25 03:27:37;;;;;;;17.13;14.02;;;;;;;22.02;55.38;100216.56;4993464;28;20428;-82
2023/06/25 03:30:04;;;;;;;15.70;13.07;;;;;;;22.00;55.09;100217.56;4993308;28;20050;-82
2023/06/25 03:32:31;;;;;;;20.30;15.73;;;;;;;21.98;55.33;100216.84;4993182;28;20155;-82
2023/06/25 03:34:57;;;;;;;18.02;15.55;;;;;;;21.97;55.35;100219.66;4993498;28;20109;-82
2023/06/25 03:37:24;;;;;;;16.95;13.45;;;;;;;21.95;55.27;100216.31;4993193;28;20054;-82
2023/06/25 03:39:51;;;;;;;17.27;13.75;;;;;;;21.94;55.19;100212.78;4993370;28;20054;-82
2023/06/25 03:44:53;;;;;;;17.42;13.90;;;;;;;21.91;55.50;100209.56;4972127;28;20062;-79
2023/06/25 03:47:20;;;;;;;18.25;15.57;;;;;;;21.91;55.84;100209.56;4973583;28;20055;-79
2023/06/25 03:49:46;;;;;;;17.67;15.57;;;;;;;21.89;55.87;100212.38;4974430;28;20125;-80
2023/06/25 03:52:13;;;;;;;18.17;15.30;;;;;;;21.87;56.18;100207.19;4974162;28;20065;-80
2023/06/25 03:54:39;;;;;;;15.43;13.60;;;;;;;21.88;56.23;100213.41;4973348;28;20050;-80
2023/06/25 03:57:06;;;;;;;16.83;15.02;;;;;;;21.86;56.27;100208.19;4973902;28;20505;-80
2023/06/25 03:59:32;;;;;;;17.20;14.32;;;;;;;21.88;56.70;100205.34;4974167;28;20493;-80
2023/06/25 04:01:59;;;;;;;16.98;15.27;;;;;;;21.90;56.86;100205.22;4974286;28;20063;-80
2023/06/25 04:04:25;;;;;;;19.77;14.65;;;;;;;21.93;56.74;100207.56;4973871;28;20070;-80
2023/06/25 04:06:52;;;;;;;16.95;14.43;;;;;;;21.94;57.09;100203.91;4973927;28;20412;-79
2023/06/25 04:09:18;;;;;;;16.08;14.48;;;;;;;21.98;56.85;100203.44;4974121;28;20058;-80
2023/06/25 04:11:45;;;;;;;18.88;14.13;;;;;;;22.00;56.92;100204.16;4974282;28;20069;-80
2023/06/25 04:14:11;;;;;;;15.48;13.68;;;;;;;22.04;56.94;100203.81;4973529;28;20130;-79
2023/06/25 04:16:38;;;;;;;15.20;12.95;;;;;;;22.08;56.73;100202.53;4973729;28;20061;-80
2023/06/25 04:19:04;;;;;;;14.65;13.02;;;;;;;22.11;56.82;100196.88;4973803;28;20077;-79
2023/06/25 04:21:30;;;;;;;13.45;12.02;;;;;;;22.16;56.96;100202.59;4973718;28;20050;-79
2023/06/25 04:23:57;;;;;;;16.95;13.93;;;;;;;22.19;56.91;100201.47;4973522;28;20050;-79
2023/06/25 04:26:23;;;;;;;15.18;13.13;;;;;;;22.23;56.81;100202.84;4972755;28;20047;-80
2023/06/25 04:28:50;;;;;;;14.68;13.00;;;;;;;22.25;56.70;100204.38;4973114;28;20069;-79
2023/06/25 04:31:16;;;;;;;14.60;13.10;;;;;;;22.30;57.01;100200.38;4973398;28;20498;-80
2023/06/25 04:33:43;;;;;;;14.45;12.73;;;;;;;22.33;56.83;100197.41;4973377;28;20059;-79
2023/06/25 04:36:10;;;;;;;16.98;12.82;;;;;;;22.36;56.89;100197.09;4972796;28;20051;-80
2023/06/25 04:38:37;;;;;;;13.75;11.25;;;;;;;22.40;56.81;100206.53;4973442;28;20064;-80
2023/06/25 04:41:04;;;;;;;12.60;11.30;;;;;;;22.43;57.00;100197.34;4973379;28;20089;-79
2023/06/25 04:43:30;;;;;;;13.63;12.25;;;;;;;22.45;56.80;100195.31;4973166;28;20421;-80
2023/06/25 04:45:56;;;;;;;13.57;11.32;;;;;;;22.49;56.75;100200.22;4973344;28;20058;-79
2023/06/25 04:48:23;;;;;;;12.55;10.57;;;;;;;22.53;56.95;100200.75;4973190;28;20130;-80
2023/06/25 04:50:49;;;;;;;11.07;9.82;;;;;;;22.56;56.82;100196.94;4973308;28;20066;-80
2023/06/25 04:53:16;;;;;;;11.93;10.60;;;;;;;22.59;56.76;100193.97;4955750;28;20061;-79
2023/06/25 04:55:42;;;;;;;10.95;9.75;;;;;;;22.63;56.88;100193.50;4972641;28;20057;-79
2023/06/25 04:58:09;;;;;;;10.68;9.57;;;;;;;22.67;56.96;100202.09;4972315;28;20521;-80
2023/06/25 05:00:35;;;;;;;9.88;8.88;;;;;;;22.71;56.71;100200.78;4972909;28;20446;-80
2023/06/25 05:03:02;;;;;;;13.00;9.30;;;;;;;22.75;56.77;100191.41;4972956;28;20062;-79
2023/06/25 05:05:28;;;;;;;12.40;9.38;;;;;;;22.81;56.77;100181.03;4972729;28;20051;-80
2023/06/25 05:07:54;;;;;;;9.80;8.57;;;;;;;22.86;56.67;100186.78;4972673;28;20217;-80
2023/06/25 05:10:21;;;;;;;10.95;9.48;;;;;;;22.91;56.99;100190.69;4972569;28;20054;-80
2023/06/25 05:12:47;;;;;;;10.25;8.77;;;;;;;22.96;57.11;100187.53;4972562;28;20518;-80
2023/06/25 05:15:15;;;;;;;10.50;8.38;;;;;;;23.01;56.66;100192.41;4972613;28;20055;-79
2023/06/25 05:17:41;;;;;;;10.15;8.18;;;;;;;23.09;56.65;100191.59;4972526;28;20062;-79
2023/06/25 05:20:08;;;;;;;10.88;7.95;;;;;;;23.13;56.51;100187.59;4972330;28;20505;-80
2023/06/25 05:22:35;;;;;;;10.68;8.27;;;;;;;23.19;56.62;100192.34;4972322;28;20348;-79
2023/06/25 05:25:01;;;;;;;8.43;7.57;;;;;;;23.24;56.59;100189.16;4972665;28;20050;-81
2023/06/25 05:27:27;;;;;;;11.45;7.38;;;;;;;23.30;56.34;100200.09;4972700;28;20050;-80
2023/06/25 05:29:54;;;;;;;9.35;7.80;;;;;;;23.35;56.14;100196.97;4955357;28;20537;-80
2023/06/25 05:32:20;;;;;;;7.90;7.10;;;;;;;23.40;56.41;100191.97;4971963;28;20062;-80
2023/06/25 05:34:47;;;;;;;8.68;6.97;;;;;;;23.47;56.40;100199.41;4971663;28;20054;-80
2023/06/25 05:37:13;;;;;;;9.23;7.13;;;;;;;23.53;56.41;100196.06;4972133;28;20054;-80
2023/06/25 05:39:40;;;;;;;9.65;6.93;;;;;;;23.56;56.50;100193.88;4970862;28;20510;-80
2023/06/25 05:42:06;;;;;;;9.00;7.40;;;;;;;23.63;56.39;100193.25;4971222;28;20429;-80
2023/06/25 05:44:33;;;;;;;8.43;6.65;;;;;;;23.67;55.98;100192.72;4971446;28;20415;-79
2023/06/25 05:46:59;;;;;;;8.27;6.72;;;;;;;23.73;56.08;100191.25;4971832;28;20058;-80
2023/06/25 05:49:26;;;;;;;6.47;5.88;;;;;;;23.79;55.81;100187.06;4954949;28;20054;-80
2023/06/25 05:51:52;;;;;;;7.22;6.53;;;;;;;23.85;55.62;100191.78;4972257;28;20084;-80
2023/06/25 05:54:18;;;;;;;6.63;5.78;;;;;;;23.92;55.53;100189.31;4971839;28;20449;-80
2023/06/25 05:56:45;;;;;;;10.80;6.53;;;;;;;23.98;55.21;100191.31;4971500;28;20065;-80
2023/06/25 05:59:11;;;;;;;7.53;6.50;;;;;;;24.03;54.96;100186.28;4972286;28;20062;-80
2023/06/25 06:01:38;;;;;;;6.90;6.18;;;;;;;24.11;54.89;100177.41;4971856;28;20051;-80
2023/06/25 06:04:05;;;;;;;8.05;5.75;;;;;;;24.19;54.90;100181.97;4972012;28;20054;-80
2023/06/25 06:06:32;;;;;;;8.35;5.63;;;;;;;24.25;54.54;100183.97;4972173;28;20059;-80
2023/06/25 06:08:58;;;;;;;7.10;6.03;;;;;;;24.32;54.11;100181.47;4972376;28;20051;-80
2023/06/25 06:11:26;;;;;;;10.23;6.03;;;;;;;24.38;54.34;100188.88;4971322;28;20065;-80
2023/06/25 06:13:52;;;;;;;8.45;6.35;;;;;;;24.45;54.09;100184.47;4971275;28;20094;-80
2023/06/25 06:16:22;;;;;;;6.80;5.95;;;;;;;24.52;53.78;100184.66;4971808;28;20421;-80
2023/06/25 06:18:49;;;;;;;8.02;5.55;;;;;;;24.58;53.70;100194.75;4971079;28;20525;-80
2023/06/25 06:21:15;;;;;;;6.97;6.38;;;;;;;24.64;53.71;100187.88;4972026;28;20063;-80
2023/06/25 06:23:42;;;;;;;6.93;6.22;;;;;;;24.70;53.44;100187.16;4971741;28;20411;-80
2023/06/25 06:26:08;;;;;;;6.57;5.53;;;;;;;24.77;53.88;100189.16;4971390;28;20133;-80
2023/06/25 06:28:35;;;;;;;6.88;5.80;;;;;;;24.83;53.67;100189.34;4971395;28;20055;-80
2023/06/25 06:31:01;;;;;;;9.00;6.07;;;;;;;24.90;53.36;100194.06;4971812;28;20065;-79
2023/06/25 06:33:27;;;;;;;6.93;5.90;;;;;;;24.95;53.74;100189.00;4952857;28;20087;-80
2023/06/25 06:35:54;;;;;;;7.18;5.70;;;;;;;25.01;53.32;100180.25;4971201;28;20070;-80
2023/06/25 06:38:20;;;;;;;6.63;6.03;;;;;;;25.06;53.42;100175.19;4971013;28;20518;-80
2023/06/25 06:40:47;;;;;;;6.72;5.38;;;;;;;25.12;53.53;100187.13;4971634;28;20059;-80
2023/06/25 06:43:13;;;;;;;7.07;6.20;;;;;;;25.18;53.33;100185.56;4971172;28;20062;-79
2023/06/25 06:45:39;;;;;;;7.15;6.45;;;;;;;25.23;53.01;100178.66;4971615;28;20058;-79
2023/06/25 06:48:07;;;;;;;6.10;5.47;;;;;;;25.30;52.86;100175.28;4971318;28;20129;-80
2023/06/25 06:50:33;;;;;;;5.78;5.28;;;;;;;25.34;52.48;100169.34;4971929;28;20150;-79
2023/06/25 06:52:59;;;;;;;6.60;5.63;;;;;;;25.38;51.94;100173.38;4971389;28;20057;-80
2023/06/25 06:55:26;;;;;;;6.13;5.53;;;;;;;25.44;52.19;100176.38;4971456;28;20061;-79
2023/06/25 06:57:52;;;;;;;8.25;6.18;;;;;;;25.49;51.98;100174.84;4971489;28;20061;-80
2023/06/25 07:00:35;;;;;;;7.80;5.88;;;;;;;25.54;52.07;100168.94;4954037;28;20063;-87
2023/06/25 07:03:02;;;;;;;9.13;6.20;;;;;;;25.60;51.89;100173.66;4954054;28;20133;-80
2023/06/25 07:05:28;;;;;;;6.40;5.80;;;;;;;25.65;51.29;100175.81;4971341;28;20089;-80
2023/06/25 07:07:55;;;;;;;7.68;6.07;;;;;;;25.71;51.37;100168.91;4970976;28;20380;-80
2023/06/25 07:10:21;;;;;;;6.22;5.63;;;;;;;25.76;51.39;100175.41;4970717;28;20047;-80
2023/06/25 07:12:48;;;;;;;7.57;6.68;;;;;;;25.82;51.04;100176.56;4953805;28;20059;-80
2023/06/25 07:15:14;;;;;;;6.35;5.45;;;;;;;25.88;51.06;100169.63;4953190;28;20051;-80
2023/06/25 07:17:41;;;;;;;6.63;5.88;;;;;;;25.94;51.29;100174.28;4970942;28;20063;-80
2023/06/25 07:20:08;;;;;;;5.65;5.15;;;;;;;26.01;51.08;100177.09;4971309;28;20055;-80
2023/06/25 07:22:36;;;;;;;6.30;5.70;;;;;;;26.06;50.74;100173.88;4973525;28;20066;-79
2023/06/25 07:25:03;;;;;;;5.85;5.25;;;;;;;26.12;50.65;100167.75;4973990;28;20062;-80
2023/06/25 07:27:29;;;;;;;6.78;6.07;;;;;;;26.17;50.30;100161.84;4974584;28;20502;-80
2023/06/25 07:29:55;;;;;;;6.15;5.55;;;;;;;26.22;50.34;100170.22;4974590;28;20069;-79
2023/06/25 07:32:22;;;;;;;8.40;6.10;;;;;;;26.27;50.15;100176.78;4974527;28;20061;-80
2023/06/25 07:34:48;;;;;;;8.25;6.40;;;;;;;26.34;49.96;100173.34;4974356;28;20317;-80
2023/06/25 07:37:15;;;;;;;6.53;5.72;;;;;;;26.39;49.81;100176.38;4974316;28;20143;-79
2023/06/25 07:39:41;;;;;;;7.63;6.03;;;;;;;26.46;49.84;100176.47;4974585;28;20062;-81
2023/06/25 07:42:08;;;;;;;8.10;6.18;;;;;;;26.52;49.46;100164.94;4974681;28;20059;-81
2023/06/25 07:44:34;;;;;;;9.60;5.95;;;;;;;26.56;49.85;100168.97;4974214;28;20055;-81
2023/06/25 07:47:04;;;;;;;8.65;5.90;;;;;;;26.62;49.99;100165.53;4974216;28;20055;-81
2023/06/25 07:49:30;;;;;;;7.78;6.10;;;;;;;26.69;49.68;100164.78;4974176;28;20051;-83
2023/06/25 07:51:57;;;;;;;7.05;6.35;;;;;;;26.74;50.00;100160.53;4974004;28;20078;-80
2023/06/25 07:54:23;;;;;;;8.85;6.57;;;;;;;26.81;50.18;100163.31;4973129;28;20054;-80
2023/06/25 07:56:50;;;;;;;7.57;5.93;;;;;;;26.88;50.06;100164.25;4968630;28;20556;-80
2023/06/25 07:59:17;;;;;;;8.43;6.10;;;;;;;26.96;49.87;100165.22;4974503;28;20066;-79
2023/06/25 08:01:44;;;;;;;6.82;6.22;;;;;;;27.03;50.43;100155.34;4974220;28;20058;-79
2023/06/25 08:04:11;;;;;;;8.80;5.97;;;;;;;27.11;49.98;100155.25;4974114;28;20055;-80
2023/06/25 08:06:38;;;;;;;7.32;5.55;;;;;;;27.21;50.33;100162.25;4974011;28;20055;-79
2023/06/25 08:09:05;;;;;;;10.48;6.13;;;;;;;27.28;50.04;100157.75;4973942;28;20057;-80
2023/06/25 08:11:31;;;;;;;6.35;5.22;;;;;;;27.36;50.01;100156.81;4973757;28;20113;-80
2023/06/25 08:13:58;;;;;;;9.00;6.60;;;;;;;27.44;49.85;100162.94;4974167;28;20074;-79
2023/06/25 08:16:24;;;;;;;5.80;5.30;;;;;;;27.53;49.49;100163.69;4973003;28;20051;-80
2023/06/25 08:18:50;;;;;;;6.72;5.53;;;;;;;27.62;49.60;100152.78;4973487;28;20625;-80
2023/06/25 08:21:17;;;;;;;6.10;5.53;;;;;;;27.70;49.07;100156.19;4973720;28;20470;-80
2023/06/25 08:23:43;;;;;;;10.20;5.95;;;;;;;27.79;49.20;100150.66;4973395;28;20061;-79
2023/06/25 08:26:12;;;;;;;6.28;5.68;;;;;;;27.89;49.56;100153.06;4973475;28;20047;-79
2023/06/25 08:28:39;;;;;;;6.95;5.80;;;;;;;27.99;49.00;100147.34;4955661;28;20071;-79
2023/06/25 08:31:09;;;;;;;6.63;5.57;;;;;;;28.08;49.27;100157.00;4957128;28;20063;-79
2023/06/25 08:33:38;;;;;;;6.63;5.93;;;;;;;28.17;49.10;100158.53;4972631;28;20090;-79
2023/06/25 08:36:04;;;;;;;6.97;6.13;;;;;;;28.25;48.92;100149.44;4972676;28;20142;-79
2023/06/25 08:38:32;;;;;;;6.13;5.40;;;;;;;28.35;49.46;100152.69;4955802;28;20065;-79
2023/06/25 08:40:59;;;;;;;6.10;5.50;;;;;;;28.44;48.90;100147.16;4973187;28;20094;-79
2023/06/25 08:43:26;;;;;;;5.90;5.30;;;;;;;28.52;48.51;100141.56;4973281;28;20059;-79
2023/06/25 08:45:52;;;;;;;6.95;5.38;;;;;;;28.60;49.23;100137.88;4973029;28;20502;-79
2023/06/25 08:48:21;;;;;;;7.60;4.63;;;;;;;28.68;48.52;100140.44;4972986;28;20081;-79
2023/06/25 08:50:53;;;;;;;5.15;4.65;;;;;;;28.75;47.31;100130.47;4972935;28;20061;-79
2023/06/25 08:53:20;;;;;;;6.38;5.07;;;;;;;28.87;47.24;100130.78;4972921;28;20436;-79
2023/06/25 08:55:48;;;;;;;5.20;4.68;;;;;;;28.95;46.93;100129.78;4972667;28;20062;-79
2023/06/25 08:58:15;;;;;;;5.65;5.00;;;;;;;29.04;46.69;100126.91;4972637;28;20068;-79
2023/06/25 09:00:41;;;;;;;5.55;4.97;;;;;;;29.11;46.61;100127.78;4972671;28;20061;-79
2023/06/25 09:03:08;;;;;;;6.82;4.95;;;;;;;29.19;45.87;100133.03;4972974;28;20059;-79
2023/06/25 09:05:35;;;;;;;7.70;4.82;;;;;;;29.25;45.57;100139.50;4972824;28;20126;-80
2023/06/25 09:08:02;;;;;;;5.00;4.50;;;;;;;29.31;45.45;100135.16;4972767;28;20059;-80
2023/06/25 09:10:31;;;;;;;6.05;4.35;;;;;;;29.37;44.88;100128.91;4972665;28;20061;-79
2023/06/25 09:13:00;;;;;;;6.75;4.68;;;;;;;29.45;45.61;100133.34;4955579;28;20051;-79
2023/06/25 09:15:28;;;;;;;7.53;4.70;;;;;;;29.54;45.65;100129.44;4972588;28;20054;-80
2023/06/25 09:17:56;;;;;;;4.93;4.43;;;;;;;29.60;43.91;100125.06;4955256;28;20112;-80
2023/06/25 09:20:23;;;;;;;5.15;4.65;;;;;;;29.67;44.15;100123.19;4972737;28;20477;-80
2023/06/25 09:22:51;;;;;;;6.10;4.50;;;;;;;29.76;45.22;100123.84;4955516;28;20059;-80
2023/06/25 09:25:27;;;;;;;6.50;4.35;;;;;;;29.83;45.62;100123.88;4972448;28;20497;-79
2023/06/25 09:27:54;;;;;;;6.32;4.20;;;;;;;29.91;45.06;100121.78;4972491;28;20146;-79
2023/06/25 09:30:24;;;;;;;4.90;4.47;;;;;;;29.97;43.41;100114.69;4972539;28;20059;-80
2023/06/25 09:32:51;;;;;;;5.47;4.53;;;;;;;30.06;43.88;100119.91;4971764;28;20627;-79
2023/06/25 09:35:19;;;;;;;5.57;4.22;;;;;;;30.12;43.92;100117.22;4972536;28;20050;-80
2023/06/25 09:37:46;;;;;;;4.85;4.35;;;;;;;30.22;44.03;100118.69;4972467;28;20052;-80
2023/06/25 09:40:12;;;;;;;7.10;4.47;;;;;;;30.27;44.25;100106.16;4972535;28;20307;-80
2023/06/25 09:45:35;;;;;;;5.45;4.57;;;;;;;30.44;42.77;100105.72;4984389;23;20062;-81
2023/06/25 09:48:04;;;;;;;6.22;4.63;;;;;;;30.50;43.54;100106.78;4974869;28;20058;-82
2023/06/25 09:50:37;;;;;;;4.32;3.92;;;;;;;30.56;42.30;100114.91;4976024;28;20105;-82
2023/06/25 09:53:18;;;;;;;5.32;4.05;;;;;;;30.62;42.06;100106.97;4977307;28;20066;-82
2023/06/25 09:55:46;;;;;;;4.30;3.90;;;;;;;30.72;41.30;100101.09;4973508;28;20087;-82
2023/06/25 09:58:19;;;;;;;5.05;4.50;;;;;;;30.76;40.55;100105.91;4973710;28;20164;-82
2023/06/25 10:00:47;;;;;;;4.50;4.10;;;;;;;30.81;40.85;100100.69;4973286;28;20086;-82
2023/06/25 10:03:17;;;;;;;6.15;4.38;;;;;;;30.84;39.67;100102.13;4987811;28;20088;-82
2023/06/25 10:05:50;;;;;;;4.82;4.00;;;;;;;30.89;40.76;100101.47;4992702;28;20089;-83
2023/06/25 10:08:19;;;;;;;4.43;4.03;;;;;;;30.93;40.21;100106.28;4993865;28;20054;-81
2023/06/25 10:11:00;;;;;;;5.68;4.13;;;;;;;30.93;39.74;100098.13;4976150;28;20085;-82
2023/06/25 10:13:27;;;;;;;4.95;4.32;;;;;;;31.01;40.23;100091.63;4973897;28;20081;-81
2023/06/25 10:16:02;;;;;;;4.57;3.78;;;;;;;31.05;41.48;100098.28;4975177;28;20473;-82
2023/06/25 10:18:30;;;;;;;5.38;4.13;;;;;;;31.17;40.62;100094.91;4992792;28;20050;-82
2023/06/25 10:21:03;;;;;;;6.07;3.90;;;;;;;31.24;39.21;100097.59;4974715;28;20138;-82
2023/06/25 10:23:30;;;;;;;6.18;4.25;;;;;;;31.31;38.69;100092.97;4966972;28;20505;-82
2023/06/25 10:25:58;;;;;;;4.30;3.78;;;;;;;31.35;38.66;100085.22;4960824;28;20062;-82
2023/06/25 10:28:34;;;;;;;6.78;4.00;;;;;;;31.38;39.71;100082.03;4973757;28;20130;-83
2023/06/25 10:31:15;;;;;;;4.85;4.05;;;;;;;31.46;38.82;100074.47;4956428;28;20505;-83
2023/06/25 10:33:42;;;;;;;5.28;3.70;;;;;;;31.58;38.33;100076.50;4964655;28;20528;-82
2023/06/25 10:36:12;;;;;;;5.07;3.72;;;;;;;31.65;38.38;100082.72;4991735;28;20109;-83
2023/06/25 10:38:39;;;;;;;4.03;3.55;;;;;;;31.75;38.29;100078.66;4983452;28;20564;-82
2023/06/25 10:41:08;;;;;;;3.95;3.55;;;;;;;31.85;38.16;100068.97;4984941;28;20066;-84
2023/06/25 10:43:37;;;;;;;4.32;3.75;;;;;;;32.01;38.28;100071.38;4984217;28;20058;-83
2023/06/25 10:46:28;;;;;;;4.20;3.70;;;;;;;32.26;38.53;100073.25;4975272;28;20054;-83
2023/06/25 10:48:59;;;;;;;5.35;3.95;;;;;;;32.56;39.34;100064.41;4974700;28;20158;-83
2023/06/25 10:51:32;;;;;;;5.45;4.00;;;;;;;32.91;37.67;100062.94;4991244;28;20062;-83
2023/06/25 10:53:59;;;;;;;4.07;3.67;;;;;;;33.33;37.10;100068.50;4991832;28;20490;-83
2023/06/25 10:56:26;;;;;;;4.43;3.50;;;;;;;33.82;36.70;100069.50;4992751;28;20134;-83
2023/06/25 10:59:00;;;;;;;4.97;3.55;;;;;;;34.34;35.49;100062.53;4979748;28;20513;-84
2023/06/25 11:01:34;;;;;;;4.18;3.78;;;;;;;34.84;35.51;100052.97;4995589;28;20090;-83
2023/06/25 11:04:00;;;;;;;3.88;3.47;;;;;;;35.37;35.31;100046.56;4993540;28;20456;-84
2023/06/25 11:06:28;;;;;;;4.93;3.35;;;;;;;35.86;34.68;100043.31;4994775;28;20539;-83
2023/06/25 11:08:54;;;;;;;3.72;3.40;;;;;;;36.34;34.69;100037.47;4995032;28;20058;-84
2023/06/25 11:11:22;;;;;;;4.15;3.75;;;;;;;36.77;34.00;100044.06;4978261;28;20066;-84
2023/06/25 11:13:49;;;;;;;5.47;4.35;;;;;;;37.18;33.98;100042.88;4993327;28;20133;-84
2023/06/25 11:16:19;;;;;;;4.57;3.22;;;;;;;37.51;32.38;100046.50;4994668;28;20437;-85
2023/06/25 11:18:47;;;;;;;4.78;3.55;;;;;;;37.82;31.48;100034.13;4994500;28;20058;-84
2023/06/25 11:21:14;;;;;;;3.70;3.40;;;;;;;38.07;32.28;100033.44;4977628;28;20050;-83
2023/06/25 11:24:06;;;;;;;3.73;3.40;;;;;;;38.27;32.01;100032.75;4995114;28;20055;-85